sensor_id;sensor_type;location;lat;lon;timestamp;temperature;humidity
6666;DHT22;3369;49.906;8.598;2023-04-19T00:00:41;10.50;99.90
6666;DHT22;3369;49.906;8.598;2023-04-19T00:03:08;10.50;99.90
6666;DHT22;3369;49.906;8.598;2023-04-19T00:05:34;10.60;99.90
6666;DHT22;3369;49.906;8.598;2023-04-19T00:08:00;10.50;99.90
6666;DHT22;3369;49.906;8.598;2023-04-19T00:10:26;10.50;99.90
6666;DHT22;3369;49.906;8.598;2023-04-19T00:12:51;10.60;99.90
6666;DHT22;3369;49.906;8.598;2023-04-19T00:15:17;10.50;99.90
6666;DHT22;3369;49.906;8.598;2023-04-19T00:17:43;10.50;99.90
6666;DHT22;3369;49.906;8.598;2023-04-19T00:20:10;10.50;99.90
6666;DHT22;3369;49.906;8.598;2023-04-19T00:22:38;10.50;99.90
6666;DHT22;3369;49.906;8.598;2023-04-19T00:25:05;10.50;99.90
6666;DHT22;3369;49.906;8.598;2023-04-19T00:27:31;10.50;99.90
6666;DHT22;3369;49.906;8.598;2023-04-19T00:29:56;10.50;99.90
6666;DHT22;3369;49.906;8.598;2023-04-19T00:32:22;10.50;99.90
6666;DHT22;3369;49.906;8.598;2023-04-19T00:34:48;10.50;99.90
6666;DHT22;3369;49.906;8.598;2023-04-19T00:37:14;10.50;99.90
6666;DHT22;3369;49.906;8.598;2023-04-19T00:39:40;10.50;99.90
6666;DHT22;3369;49.906;8.598;2023-04-19T00:42:06;10.50;99.90
6666;DHT22;3369;49.906;8.598;2023-04-19T00:44:31;10.50;99.90
6666;DHT22;3369;49.906;8.598;2023-04-19T00:46:58;10.50;99.90
6666;DHT22;3369;49.906;8.598;2023-04-19T00:49:24;10.40;99.90
6666;DHT22;3369;49.906;8.598;2023-04-19T00:51:50;10.40;99.90
6666;DHT22;3369;49.906;8.598;2023-04-19T00:54:17;10.40;99.90
6666;DHT22;3369;49.906;8.598;2023-04-19T00:56:43;10.40;99.90
6666;DHT22;3369;49.906;8.598;2023-04-19T00:59:11;10.40;99.90
6666;DHT22;3369;49.906;8.598;2023-04-19T01:01:37;10.40;99.90
6666;DHT22;3369;49.906;8.598;2023-04-19T01:04:04;10.40;99.90
6666;DHT22;3369;49.906;8.598;2023-04-19T01:06:30;10.40;99.90
6666;DHT22;3369;49.906;8.598;2023-04-19T01:30:03;10.20;99.90
6666;DHT22;3369;49.906;8.598;2023-04-19T01:32:28;10.20;99.90
6666;DHT22;3369;49.906;8.598;2023-04-19T01:34:54;10.20;99.90
6666;DHT22;3369;49.906;8.598;2023-04-19T01:37:19;10.20;99.90
6666;DHT22;3369;49.906;8.598;2023-04-19T01:39:45;10.20;99.90
6666;DHT22;3369;49.906;8.598;2023-04-19T01:42:11;10.20;99.90
6666;DHT22;3369;49.906;8.598;2023-04-19T01:44:36;10.20;99.90
6666;DHT22;3369;49.906;8.598;2023-04-19T01:47:03;10.20;99.90
6666;DHT22;3369;49.906;8.598;2023-04-19T01:49:29;10.20;99.90
6666;DHT22;3369;49.906;8.598;2023-04-19T01:51:54;10.20;99.90
6666;DHT22;3369;49.906;8.598;2023-04-19T01:54:20;10.20;99.90
6666;DHT22;3369;49.906;8.598;2023-04-19T01:56:45;10.20;99.90
6666;DHT22;3369;49.906;8.598;2023-04-19T01:59:11;10.20;99.90
6666;DHT22;3369;49.906;8.598;2023-04-19T02:01:37;10.20;99.90
6666;DHT22;3369;49.906;8.598;2023-04-19T02:04:02;10.20;99.90
6666;DHT22;3369;49.906;8.598;2023-04-19T02:06:28;10.20;99.90
6666;DHT22;3369;49.906;8.598;2023-04-19T02:08:53;10.20;99.90
6666;DHT22;3369;49.906;8.598;2023-04-19T02:11:19;10.20;99.90
6666;DHT22;3369;49.906;8.598;2023-04-19T02:13:45;10.20;99.90
6666;DHT22;3369;49.906;8.598;2023-04-19T02:16:11;10.20;99.90
6666;DHT22;3369;49.906;8.598;2023-04-19T02:18:37;10.10;99.90
6666;DHT22;3369;49.906;8.598;2023-04-19T02:21:06;10.10;99.90
6666;DHT22;3369;49.906;8.598;2023-04-19T02:23:32;10.10;99.90
6666;DHT22;3369;49.906;8.598;2023-04-19T02:25:59;10.10;99.90
6666;DHT22;3369;49.906;8.598;2023-04-19T02:28:30;10.10;99.90
6666;DHT22;3369;49.906;8.598;2023-04-19T02:30:56;10.10;99.90
6666;DHT22;3369;49.906;8.598;2023-04-19T02:33:22;10.10;99.90
6666;DHT22;3369;49.906;8.598;2023-04-19T02:35:48;10.00;99.90
6666;DHT22;3369;49.906;8.598;2023-04-19T02:38:14;10.00;99.90
6666;DHT22;3369;49.906;8.598;2023-04-19T02:40:39;10.00;99.90
6666;DHT22;3369;49.906;8.598;2023-04-19T02:43:05;9.90;99.90
6666;DHT22;3369;49.906;8.598;2023-04-19T02:45:31;9.90;99.90
6666;DHT22;3369;49.906;8.598;2023-04-19T02:47:56;9.90;99.90
6666;DHT22;3369;49.906;8.598;2023-04-19T02:50:24;9.80;99.90
6666;DHT22;3369;49.906;8.598;2023-04-19T02:52:50;9.80;99.90
6666;DHT22;3369;49.906;8.598;2023-04-19T02:55:15;9.80;99.90
6666;DHT22;3369;49.906;8.598;2023-04-19T02:57:41;9.80;99.90
6666;DHT22;3369;49.906;8.598;2023-04-19T03:00:07;9.70;99.90
6666;DHT22;3369;49.906;8.598;2023-04-19T03:02:33;9.70;99.90
6666;DHT22;3369;49.906;8.598;2023-04-19T03:04:59;9.70;99.90
6666;DHT22;3369;49.906;8.598;2023-04-19T03:07:25;9.70;99.90
6666;DHT22;3369;49.906;8.598;2023-04-19T03:09:50;9.70;99.90
6666;DHT22;3369;49.906;8.598;2023-04-19T03:12:16;9.70;99.90
6666;DHT22;3369;49.906;8.598;2023-04-19T03:14:41;9.70;99.90
6666;DHT22;3369;49.906;8.598;2023-04-19T03:17:07;9.70;99.90
6666;DHT22;3369;49.906;8.598;2023-04-19T03:19:33;9.70;99.90
6666;DHT22;3369;49.906;8.598;2023-04-19T03:21:58;9.60;99.90
6666;DHT22;3369;49.906;8.598;2023-04-19T03:24:28;9.60;99.90
6666;DHT22;3369;49.906;8.598;2023-04-19T03:26:54;9.60;99.90
6666;DHT22;3369;49.906;8.598;2023-04-19T03:29:20;9.60;99.90
6666;DHT22;3369;49.906;8.598;2023-04-19T03:31:46;9.50;99.90
6666;DHT22;3369;49.906;8.598;2023-04-19T03:34:11;9.50;99.90
6666;DHT22;3369;49.906;8.598;2023-04-19T03:36:38;9.50;99.90
6666;DHT22;3369;49.906;8.598;2023-04-19T03:39:04;9.40;99.90
6666;DHT22;3369;49.906;8.598;2023-04-19T03:41:29;9.40;99.90
6666;DHT22;3369;49.906;8.598;2023-04-19T03:43:55;9.40;99.90
6666;DHT22;3369;49.906;8.598;2023-04-19T03:46:22;9.40;99.90
6666;DHT22;3369;49.906;8.598;2023-04-19T03:48:48;9.30;99.90
6666;DHT22;3369;49.906;8.598;2023-04-19T03:51:14;9.30;99.90
6666;DHT22;3369;49.906;8.598;2023-04-19T03:53:41;9.30;99.90
6666;DHT22;3369;49.906;8.598;2023-04-19T03:56:06;9.30;99.90
6666;DHT22;3369;49.906;8.598;2023-04-19T03:58:32;9.30;99.90
6666;DHT22;3369;49.906;8.598;2023-04-19T04:00:58;9.20;99.90
6666;DHT22;3369;49.906;8.598;2023-04-19T04:03:24;9.20;99.90
6666;DHT22;3369;49.906;8.598;2023-04-19T04:05:50;9.20;99.90
6666;DHT22;3369;49.906;8.598;2023-04-19T04:08:15;9.20;99.90
6666;DHT22;3369;49.906;8.598;2023-04-19T04:10:41;9.20;99.90
6666;DHT22;3369;49.906;8.598;2023-04-19T04:13:07;9.10;99.90
6666;DHT22;3369;49.906;8.598;2023-04-19T04:15:32;9.00;99.90
6666;DHT22;3369;49.906;8.598;2023-04-19T04:17:58;9.00;99.90
6666;DHT22;3369;49.906;8.598;2023-04-19T04:20:23;9.00;99.90
6666;DHT22;3369;49.906;8.598;2023-04-19T04:22:49;9.00;99.90
6666;DHT22;3369;49.906;8.598;2023-04-19T04:25:15;8.90;99.90
6666;DHT22;3369;49.906;8.598;2023-04-19T04:27:44;8.90;99.90
6666;DHT22;3369;49.906;8.598;2023-04-19T04:30:10;8.90;99.90
6666;DHT22;3369;49.906;8.598;2023-04-19T04:32:38;8.90;99.90
6666;DHT22;3369;49.906;8.598;2023-04-19T04:35:06;8.80;99.90
6666;DHT22;3369;49.906;8.598;2023-04-19T04:37:32;8.80;99.90
6666;DHT22;3369;49.906;8.598;2023-04-19T04:40:01;8.80;99.90
6666;DHT22;3369;49.906;8.598;2023-04-19T04:42:29;8.80;99.90
6666;DHT22;3369;49.906;8.598;2023-04-19T04:44:57;8.80;99.90
6666;DHT22;3369;49.906;8.598;2023-04-19T04:47:23;8.80;99.90
6666;DHT22;3369;49.906;8.598;2023-04-19T04:49:49;8.80;99.90
6666;DHT22;3369;49.906;8.598;2023-04-19T04:52:15;8.80;99.90
6666;DHT22;3369;49.906;8.598;2023-04-19T04:54:42;8.80;99.90
6666;DHT22;3369;49.906;8.598;2023-04-19T04:57:07;8.70;99.90
6666;DHT22;3369;49.906;8.598;2023-04-19T04:59:33;8.70;99.90
6666;DHT22;3369;49.906;8.598;2023-04-19T05:01:58;8.70;99.90
6666;DHT22;3369;49.906;8.598;2023-04-19T05:04:24;8.70;99.90
6666;DHT22;3369;49.906;8.598;2023-04-19T05:06:50;8.80;99.90
6666;DHT22;3369;49.906;8.598;2023-04-19T05:09:16;8.80;99.90
6666;DHT22;3369;49.906;8.598;2023-04-19T05:11:42;8.80;99.90
6666;DHT22;3369;49.906;8.598;2023-04-19T05:14:07;8.80;99.90
6666;DHT22;3369;49.906;8.598;2023-04-19T05:16:33;8.90;99.90
6666;DHT22;3369;49.906;8.598;2023-04-19T05:18:59;8.90;99.90
6666;DHT22;3369;49.906;8.598;2023-04-19T05:21:24;8.90;99.90
6666;DHT22;3369;49.906;8.598;2023-04-19T05:23:51;9.00;99.90
6666;DHT22;3369;49.906;8.598;2023-04-19T05:26:18;9.00;99.90
6666;DHT22;3369;49.906;8.598;2023-04-19T05:28:44;9.10;99.90
6666;DHT22;3369;49.906;8.598;2023-04-19T05:31:10;9.10;99.90
6666;DHT22;3369;49.906;8.598;2023-04-19T05:33:36;9.20;99.90
6666;DHT22;3369;49.906;8.598;2023-04-19T05:36:02;9.30;99.90
6666;DHT22;3369;49.906;8.598;2023-04-19T05:38:27;9.30;99.90
6666;DHT22;3369;49.906;8.598;2023-04-19T05:40:53;9.40;99.90
6666;DHT22;3369;49.906;8.598;2023-04-19T05:43:19;9.40;99.90
6666;DHT22;3369;49.906;8.598;2023-04-19T05:45:46;9.50;99.90
6666;DHT22;3369;49.906;8.598;2023-04-19T05:48:11;9.50;99.90
6666;DHT22;3369;49.906;8.598;2023-04-19T05:50:38;9.60;99.90
6666;DHT22;3369;49.906;8.598;2023-04-19T05:53:04;9.60;99.90
6666;DHT22;3369;49.906;8.598;2023-04-19T05:55:30;9.70;99.90
6666;DHT22;3369;49.906;8.598;2023-04-19T05:57:57;9.70;99.90
6666;DHT22;3369;49.906;8.598;2023-04-19T06:00:23;9.80;99.90
6666;DHT22;3369;49.906;8.598;2023-04-19T06:02:49;9.80;99.90
6666;DHT22;3369;49.906;8.598;2023-04-19T06:05:14;10.00;99.90
6666;DHT22;3369;49.906;8.598;2023-04-19T06:07:40;10.20;99.90
6666;DHT22;3369;49.906;8.598;2023-04-19T06:10:06;10.50;99.90
6666;DHT22;3369;49.906;8.598;2023-04-19T06:12:32;10.80;99.90
6666;DHT22;3369;49.906;8.598;2023-04-19T06:14:58;11.00;99.90
6666;DHT22;3369;49.906;8.598;2023-04-19T06:17:23;11.10;99.90
6666;DHT22;3369;49.906;8.598;2023-04-19T06:19:53;11.20;99.90
6666;DHT22;3369;49.906;8.598;2023-04-19T06:22:19;11.20;99.90
6666;DHT22;3369;49.906;8.598;2023-04-19T06:24:45;11.20;99.90
6666;DHT22;3369;49.906;8.598;2023-04-19T06:27:11;11.20;99.90
6666;DHT22;3369;49.906;8.598;2023-04-19T06:29:37;11.20;99.90
6666;DHT22;3369;49.906;8.598;2023-04-19T06:32:03;11.20;99.90
6666;DHT22;3369;49.906;8.598;2023-04-19T06:34:29;11.20;99.90
6666;DHT22;3369;49.906;8.598;2023-04-19T06:36:54;11.20;99.90
6666;DHT22;3369;49.906;8.598;2023-04-19T06:39:20;11.20;99.90
6666;DHT22;3369;49.906;8.598;2023-04-19T06:41:45;11.20;99.90
6666;DHT22;3369;49.906;8.598;2023-04-19T06:44:11;11.20;99.90
6666;DHT22;3369;49.906;8.598;2023-04-19T06:46:38;11.30;99.90
6666;DHT22;3369;49.906;8.598;2023-04-19T06:49:04;11.30;99.90
6666;DHT22;3369;49.906;8.598;2023-04-19T07:13:28;11.00;99.90
6666;DHT22;3369;49.906;8.598;2023-04-19T07:15:54;11.00;99.90
6666;DHT22;3369;49.906;8.598;2023-04-19T07:18:20;11.00;99.90
6666;DHT22;3369;49.906;8.598;2023-04-19T07:20:46;11.10;99.90
6666;DHT22;3369;49.906;8.598;2023-04-19T07:23:14;11.10;99.90
6666;DHT22;3369;49.906;8.598;2023-04-19T07:25:40;11.10;99.90
6666;DHT22;3369;49.906;8.598;2023-04-19T07:28:05;11.10;99.90
6666;DHT22;3369;49.906;8.598;2023-04-19T07:30:31;11.10;99.90
6666;DHT22;3369;49.906;8.598;2023-04-19T07:32:57;11.10;99.90
6666;DHT22;3369;49.906;8.598;2023-04-19T07:35:23;11.10;99.90
6666;DHT22;3369;49.906;8.598;2023-04-19T07:37:48;11.10;99.90
6666;DHT22;3369;49.906;8.598;2023-04-19T07:40:14;11.10;99.90
6666;DHT22;3369;49.906;8.598;2023-04-19T07:42:41;11.10;99.90
6666;DHT22;3369;49.906;8.598;2023-04-19T07:45:08;11.10;99.90
6666;DHT22;3369;49.906;8.598;2023-04-19T07:47:34;11.10;99.90
6666;DHT22;3369;49.906;8.598;2023-04-19T07:49:59;11.10;99.90
6666;DHT22;3369;49.906;8.598;2023-04-19T07:52:25;11.10;99.90
6666;DHT22;3369;49.906;8.598;2023-04-19T07:54:51;11.10;99.90
6666;DHT22;3369;49.906;8.598;2023-04-19T07:57:16;11.10;99.90
6666;DHT22;3369;49.906;8.598;2023-04-19T07:59:42;11.10;99.90
6666;DHT22;3369;49.906;8.598;2023-04-19T08:02:08;11.20;99.90
6666;DHT22;3369;49.906;8.598;2023-04-19T08:04:34;11.20;99.90
6666;DHT22;3369;49.906;8.598;2023-04-19T08:06:59;11.10;99.90
6666;DHT22;3369;49.906;8.598;2023-04-19T08:09:25;11.20;99.90
6666;DHT22;3369;49.906;8.598;2023-04-19T08:11:51;11.20;99.90
6666;DHT22;3369;49.906;8.598;2023-04-19T08:14:18;11.20;99.90
6666;DHT22;3369;49.906;8.598;2023-04-19T08:16:43;11.30;99.90
6666;DHT22;3369;49.906;8.598;2023-04-19T08:19:09;11.40;99.90
6666;DHT22;3369;49.906;8.598;2023-04-19T08:21:35;11.50;99.90
6666;DHT22;3369;49.906;8.598;2023-04-19T08:24:01;11.60;99.90
6666;DHT22;3369;49.906;8.598;2023-04-19T08:26:27;11.80;99.90
6666;DHT22;3369;49.906;8.598;2023-04-19T08:28:52;11.90;99.90
6666;DHT22;3369;49.906;8.598;2023-04-19T08:31:18;12.10;99.90
6666;DHT22;3369;49.906;8.598;2023-04-19T08:33:46;12.20;99.90
6666;DHT22;3369;49.906;8.598;2023-04-19T08:36:12;12.20;99.90
6666;DHT22;3369;49.906;8.598;2023-04-19T08:38:38;12.30;99.90
6666;DHT22;3369;49.906;8.598;2023-04-19T08:41:03;12.40;99.90
6666;DHT22;3369;49.906;8.598;2023-04-19T08:43:30;12.40;99.90
6666;DHT22;3369;49.906;8.598;2023-04-19T08:46:00;12.50;99.90
6666;DHT22;3369;49.906;8.598;2023-04-19T08:48:28;12.60;99.90
6666;DHT22;3369;49.906;8.598;2023-04-19T08:50:55;12.60;99.90
6666;DHT22;3369;49.906;8.598;2023-04-19T08:53:22;12.70;99.90
6666;DHT22;3369;49.906;8.598;2023-04-19T08:55:49;12.70;99.90
6666;DHT22;3369;49.906;8.598;2023-04-19T08:58:15;12.80;99.90
6666;DHT22;3369;49.906;8.598;2023-04-19T09:00:41;12.80;99.90
6666;DHT22;3369;49.906;8.598;2023-04-19T09:03:07;12.80;99.90
6666;DHT22;3369;49.906;8.598;2023-04-19T09:05:33;12.80;99.90
6666;DHT22;3369;49.906;8.598;2023-04-19T09:10:55;12.70;99.90
6666;DHT22;3369;49.906;8.598;2023-04-19T09:13:21;12.70;99.90
6666;DHT22;3369;49.906;8.598;2023-04-19T09:15:47;12.80;99.90
6666;DHT22;3369;49.906;8.598;2023-04-19T09:18:13;12.90;99.90
6666;DHT22;3369;49.906;8.598;2023-04-19T09:20:41;13.00;99.90
6666;DHT22;3369;49.906;8.598;2023-04-19T09:23:09;13.10;99.90
6666;DHT22;3369;49.906;8.598;2023-04-19T09:25:37;13.20;99.90
6666;DHT22;3369;49.906;8.598;2023-04-19T09:28:13;13.20;99.90
6666;DHT22;3369;49.906;8.598;2023-04-19T09:30:40;13.40;99.90
6666;DHT22;3369;49.906;8.598;2023-04-19T09:33:06;13.60;99.90
6666;DHT22;3369;49.906;8.598;2023-04-19T09:35:59;13.80;99.90
6666;DHT22;3369;49.906;8.598;2023-04-19T09:38:25;14.30;99.90
6666;DHT22;3369;49.906;8.598;2023-04-19T09:40:51;14.60;99.90
6666;DHT22;3369;49.906;8.598;2023-04-19T09:43:23;14.80;99.90
6666;DHT22;3369;49.906;8.598;2023-04-19T09:45:52;15.00;99.90
6666;DHT22;3369;49.906;8.598;2023-04-19T09:48:18;15.20;99.90
6666;DHT22;3369;49.906;8.598;2023-04-19T09:53:21;15.30;99.90
6666;DHT22;3369;49.906;8.598;2023-04-19T09:55:47;15.20;99.90
6666;DHT22;3369;49.906;8.598;2023-04-19T09:58:14;15.10;99.90
6666;DHT22;3369;49.906;8.598;2023-04-19T10:00:40;15.00;99.90
6666;DHT22;3369;49.906;8.598;2023-04-19T10:03:09;15.00;99.90
6666;DHT22;3369;49.906;8.598;2023-04-19T10:05:37;14.90;99.90
6666;DHT22;3369;49.906;8.598;2023-04-19T10:08:11;14.80;99.90
6666;DHT22;3369;49.906;8.598;2023-04-19T10:10:40;14.80;99.90
6666;DHT22;3369;49.906;8.598;2023-04-19T10:13:08;14.90;99.90
6666;DHT22;3369;49.906;8.598;2023-04-19T10:15:35;14.90;99.90
6666;DHT22;3369;49.906;8.598;2023-04-19T10:18:05;15.00;99.80
6666;DHT22;3369;49.906;8.598;2023-04-19T10:20:49;15.00;99.50
6666;DHT22;3369;49.906;8.598;2023-04-19T10:23:16;14.90;99.00
6666;DHT22;3369;49.906;8.598;2023-04-19T10:25:45;14.80;98.60
6666;DHT22;3369;49.906;8.598;2023-04-19T10:28:12;14.70;98.70
6666;DHT22;3369;49.906;8.598;2023-04-19T10:30:58;14.80;98.10
6666;DHT22;3369;49.906;8.598;2023-04-19T10:33:27;15.00;97.50
6666;DHT22;3369;49.906;8.598;2023-04-19T10:35:57;15.20;96.10
6666;DHT22;3369;49.906;8.598;2023-04-19T10:38:47;15.30;95.70
6666;DHT22;3369;49.906;8.598;2023-04-19T10:41:15;15.40;94.60
6666;DHT22;3369;49.906;8.598;2023-04-19T10:46:14;15.30;94.60
6666;DHT22;3369;49.906;8.598;2023-04-19T10:48:58;15.30;95.00
6666;DHT22;3369;49.906;8.598;2023-04-19T10:53:59;15.50;95.30
6666;DHT22;3369;49.906;8.598;2023-04-19T11:04:05;15.90;93.90
6666;DHT22;3369;49.906;8.598;2023-04-19T11:06:32;15.90;93.50
6666;DHT22;3369;49.906;8.598;2023-04-19T11:08:58;15.90;93.20
6666;DHT22;3369;49.906;8.598;2023-04-19T11:11:25;15.90;93.00
6666;DHT22;3369;49.906;8.598;2023-04-19T11:13:53;15.80;91.60
6666;DHT22;3369;49.906;8.598;2023-04-19T11:16:19;15.70;91.20
6666;DHT22;3369;49.906;8.598;2023-04-19T11:18:45;15.60;91.80
6666;DHT22;3369;49.906;8.598;2023-04-19T11:21:17;15.50;91.30
6666;DHT22;3369;49.906;8.598;2023-04-19T11:23:43;15.50;91.60
6666;DHT22;3369;49.906;8.598;2023-04-19T11:26:11;15.50;90.90
6666;DHT22;3369;49.906;8.598;2023-04-19T11:28:38;15.50;90.50
6666;DHT22;3369;49.906;8.598;2023-04-19T11:31:04;15.50;91.20
6666;DHT22;3369;49.906;8.598;2023-04-19T11:33:34;15.60;90.10
6666;DHT22;3369;49.906;8.598;2023-04-19T11:36:00;15.60;90.00
6666;DHT22;3369;49.906;8.598;2023-04-19T11:38:31;15.60;90.10
6666;DHT22;3369;49.906;8.598;2023-04-19T11:41:01;15.70;90.80
6666;DHT22;3369;49.906;8.598;2023-04-19T11:43:36;15.80;90.80
6666;DHT22;3369;49.906;8.598;2023-04-19T11:46:10;15.90;90.10
6666;DHT22;3369;49.906;8.598;2023-04-19T11:48:37;16.00;89.30
6666;DHT22;3369;49.906;8.598;2023-04-19T11:51:03;16.10;89.10
6666;DHT22;3369;49.906;8.598;2023-04-19T11:53:31;16.20;87.50
6666;DHT22;3369;49.906;8.598;2023-04-19T11:56:03;16.20;87.50
6666;DHT22;3369;49.906;8.598;2023-04-19T11:58:43;16.30;84.10
6666;DHT22;3369;49.906;8.598;2023-04-19T12:01:19;16.20;81.20
6666;DHT22;3369;49.906;8.598;2023-04-19T12:03:49;16.10;81.90
6666;DHT22;3369;49.906;8.598;2023-04-19T12:08:50;16.20;83.80
6666;DHT22;3369;49.906;8.598;2023-04-19T12:11:18;16.30;82.90
6666;DHT22;3369;49.906;8.598;2023-04-19T12:13:44;16.40;81.50
6666;DHT22;3369;49.906;8.598;2023-04-19T12:16:11;16.40;81.30
6666;DHT22;3369;49.906;8.598;2023-04-19T12:18:47;16.50;80.20
6666;DHT22;3369;49.906;8.598;2023-04-19T12:23:53;16.50;76.00
6666;DHT22;3369;49.906;8.598;2023-04-19T12:26:18;16.50;76.60
6666;DHT22;3369;49.906;8.598;2023-04-19T12:28:44;16.60;77.00
6666;DHT22;3369;49.906;8.598;2023-04-19T12:31:10;16.60;75.20
6666;DHT22;3369;49.906;8.598;2023-04-19T12:33:36;16.70;74.90
6666;DHT22;3369;49.906;8.598;2023-04-19T12:36:01;16.90;74.50
6666;DHT22;3369;49.906;8.598;2023-04-19T12:38:27;16.90;72.40
6666;DHT22;3369;49.906;8.598;2023-04-19T12:40:53;17.00;71.50
6666;DHT22;3369;49.906;8.598;2023-04-19T12:43:18;17.10;70.70
6666;DHT22;3369;49.906;8.598;2023-04-19T12:45:44;17.20;70.20
6666;DHT22;3369;49.906;8.598;2023-04-19T12:48:10;17.20;67.80
6666;DHT22;3369;49.906;8.598;2023-04-19T12:50:35;17.20;66.10
6666;DHT22;3369;49.906;8.598;2023-04-19T12:53:01;17.10;65.50
6666;DHT22;3369;49.906;8.598;2023-04-19T12:55:27;17.20;63.50
6666;DHT22;3369;49.906;8.598;2023-04-19T12:57:52;17.10;58.70
6666;DHT22;3369;49.906;8.598;2023-04-19T13:00:18;17.00;59.00
6666;DHT22;3369;49.906;8.598;2023-04-19T13:02:44;17.00;57.60
6666;DHT22;3369;49.906;8.598;2023-04-19T13:05:12;17.00;58.00
6666;DHT22;3369;49.906;8.598;2023-04-19T13:07:38;16.90;58.50
6666;DHT22;3369;49.906;8.598;2023-04-19T13:30:10;16.30;51.90
6666;DHT22;3369;49.906;8.598;2023-04-19T13:32:36;16.20;54.40
6666;DHT22;3369;49.906;8.598;2023-04-19T13:35:02;16.20;55.60
6666;DHT22;3369;49.906;8.598;2023-04-19T13:37:27;16.30;55.60
6666;DHT22;3369;49.906;8.598;2023-04-19T13:39:53;16.30;54.40
6666;DHT22;3369;49.906;8.598;2023-04-19T13:42:19;16.40;54.60
6666;DHT22;3369;49.906;8.598;2023-04-19T13:44:45;16.40;54.10
6666;DHT22;3369;49.906;8.598;2023-04-19T13:47:10;16.40;55.20
6666;DHT22;3369;49.906;8.598;2023-04-19T13:49:36;16.40;53.00
6666;DHT22;3369;49.906;8.598;2023-04-19T13:52:02;16.40;53.20
6666;DHT22;3369;49.906;8.598;2023-04-19T13:54:28;16.40;52.40
6666;DHT22;3369;49.906;8.598;2023-04-19T13:56:53;16.30;50.70
6666;DHT22;3369;49.906;8.598;2023-04-19T13:59:20;16.20;50.90
6666;DHT22;3369;49.906;8.598;2023-04-19T14:01:46;16.10;49.90
6666;DHT22;3369;49.906;8.598;2023-04-19T14:04:11;16.00;49.10
6666;DHT22;3369;49.906;8.598;2023-04-19T14:06:37;15.90;49.10
6666;DHT22;3369;49.906;8.598;2023-04-19T14:09:03;15.80;46.80
6666;DHT22;3369;49.906;8.598;2023-04-19T14:11:29;15.70;49.20
6666;DHT22;3369;49.906;8.598;2023-04-19T14:13:55;15.70;51.40
6666;DHT22;3369;49.906;8.598;2023-04-19T14:16:21;15.80;52.40
6666;DHT22;3369;49.906;8.598;2023-04-19T14:18:49;15.80;53.00
6666;DHT22;3369;49.906;8.598;2023-04-19T14:21:15;15.90;52.60
6666;DHT22;3369;49.906;8.598;2023-04-19T14:23:40;16.00;52.40
6666;DHT22;3369;49.906;8.598;2023-04-19T14:26:06;16.00;52.30
6666;DHT22;3369;49.906;8.598;2023-04-19T14:28:32;16.00;52.20
6666;DHT22;3369;49.906;8.598;2023-04-19T14:30:58;16.00;51.00
6666;DHT22;3369;49.906;8.598;2023-04-19T14:33:23;16.00;51.30
6666;DHT22;3369;49.906;8.598;2023-04-19T14:35:49;16.00;50.20
6666;DHT22;3369;49.906;8.598;2023-04-19T14:38:14;15.90;48.80
6666;DHT22;3369;49.906;8.598;2023-04-19T14:40:40;15.90;49.10
6666;DHT22;3369;49.906;8.598;2023-04-19T14:43:06;15.80;47.60
6666;DHT22;3369;49.906;8.598;2023-04-19T14:45:31;15.70;45.80
6666;DHT22;3369;49.906;8.598;2023-04-19T14:47:57;15.60;45.30
6666;DHT22;3369;49.906;8.598;2023-04-19T14:50:23;15.40;47.80
6666;DHT22;3369;49.906;8.598;2023-04-19T14:52:48;15.30;46.70
6666;DHT22;3369;49.906;8.598;2023-04-19T14:55:14;15.30;47.50
6666;DHT22;3369;49.906;8.598;2023-04-19T14:57:40;15.20;48.90
6666;DHT22;3369;49.906;8.598;2023-04-19T15:00:06;15.20;49.80
6666;DHT22;3369;49.906;8.598;2023-04-19T15:02:32;15.20;48.70
6666;DHT22;3369;49.906;8.598;2023-04-19T15:04:57;15.20;49.50
6666;DHT22;3369;49.906;8.598;2023-04-19T15:07:23;15.20;49.30
6666;DHT22;3369;49.906;8.598;2023-04-19T15:09:49;15.20;50.30
6666;DHT22;3369;49.906;8.598;2023-04-19T15:12:14;15.20;48.00
6666;DHT22;3369;49.906;8.598;2023-04-19T15:14:40;15.20;48.80
6666;DHT22;3369;49.906;8.598;2023-04-19T15:17:06;15.20;48.50
6666;DHT22;3369;49.906;8.598;2023-04-19T15:19:31;15.10;46.90
6666;DHT22;3369;49.906;8.598;2023-04-19T15:21:57;15.00;47.80
6666;DHT22;3369;49.906;8.598;2023-04-19T15:24:23;15.00;49.20
6666;DHT22;3369;49.906;8.598;2023-04-19T15:26:48;14.90;49.20
6666;DHT22;3369;49.906;8.598;2023-04-19T15:29:14;14.90;49.50
6666;DHT22;3369;49.906;8.598;2023-04-19T15:31:39;14.90;49.60
6666;DHT22;3369;49.906;8.598;2023-04-19T15:34:05;14.90;50.20
6666;DHT22;3369;49.906;8.598;2023-04-19T15:36:31;14.90;51.20
6666;DHT22;3369;49.906;8.598;2023-04-19T15:38:59;14.80;50.50
6666;DHT22;3369;49.906;8.598;2023-04-19T15:41:25;14.80;51.00
6666;DHT22;3369;49.906;8.598;2023-04-19T15:43:51;14.80;50.80
6666;DHT22;3369;49.906;8.598;2023-04-19T15:46:16;14.70;50.90
6666;DHT22;3369;49.906;8.598;2023-04-19T15:48:43;14.70;51.10
6666;DHT22;3369;49.906;8.598;2023-04-19T15:51:11;14.70;51.30
6666;DHT22;3369;49.906;8.598;2023-04-19T15:53:36;14.60;51.20
6666;DHT22;3369;49.906;8.598;2023-04-19T15:56:03;14.60;51.10
6666;DHT22;3369;49.906;8.598;2023-04-19T15:58:29;14.50;50.50
6666;DHT22;3369;49.906;8.598;2023-04-19T16:00:55;14.50;52.20
6666;DHT22;3369;49.906;8.598;2023-04-19T16:03:20;14.50;53.10
6666;DHT22;3369;49.906;8.598;2023-04-19T16:05:46;14.50;52.60
6666;DHT22;3369;49.906;8.598;2023-04-19T16:08:16;14.50;53.00
6666;DHT22;3369;49.906;8.598;2023-04-19T16:10:44;14.50;53.70
6666;DHT22;3369;49.906;8.598;2023-04-19T16:13:10;14.50;52.00
6666;DHT22;3369;49.906;8.598;2023-04-19T16:15:38;14.40;52.50
6666;DHT22;3369;49.906;8.598;2023-04-19T16:18:03;14.30;52.50
6666;DHT22;3369;49.906;8.598;2023-04-19T16:20:29;14.30;51.80
6666;DHT22;3369;49.906;8.598;2023-04-19T16:22:55;14.30;52.10
6666;DHT22;3369;49.906;8.598;2023-04-19T16:25:22;14.20;52.50
6666;DHT22;3369;49.906;8.598;2023-04-19T16:27:47;14.20;51.70
6666;DHT22;3369;49.906;8.598;2023-04-19T16:30:14;14.20;52.00
6666;DHT22;3369;49.906;8.598;2023-04-19T16:32:41;14.10;52.20
6666;DHT22;3369;49.906;8.598;2023-04-19T16:35:07;14.00;52.10
6666;DHT22;3369;49.906;8.598;2023-04-19T16:37:34;13.90;53.40
6666;DHT22;3369;49.906;8.598;2023-04-19T16:40:07;13.90;53.60
6666;DHT22;3369;49.906;8.598;2023-04-19T16:42:34;13.80;53.70
6666;DHT22;3369;49.906;8.598;2023-04-19T16:45:00;13.80;53.20
6666;DHT22;3369;49.906;8.598;2023-04-19T16:47:25;13.70;52.80
6666;DHT22;3369;49.906;8.598;2023-04-19T16:49:51;13.60;53.20
6666;DHT22;3369;49.906;8.598;2023-04-19T16:52:16;13.60;52.30
6666;DHT22;3369;49.906;8.598;2023-04-19T16:54:43;13.50;52.50
6666;DHT22;3369;49.906;8.598;2023-04-19T16:57:09;13.50;53.80
6666;DHT22;3369;49.906;8.598;2023-04-19T16:59:35;13.50;54.00
6666;DHT22;3369;49.906;8.598;2023-04-19T17:02:01;13.50;52.80
6666;DHT22;3369;49.906;8.598;2023-04-19T17:04:27;13.40;53.10
6666;DHT22;3369;49.906;8.598;2023-04-19T17:06:52;13.30;53.30
6666;DHT22;3369;49.906;8.598;2023-04-19T17:09:20;13.20;54.30
6666;DHT22;3369;49.906;8.598;2023-04-19T17:11:46;13.10;55.10
6666;DHT22;3369;49.906;8.598;2023-04-19T17:14:11;13.10;54.80
6666;DHT22;3369;49.906;8.598;2023-04-19T17:16:37;13.10;55.20
6666;DHT22;3369;49.906;8.598;2023-04-19T17:19:03;13.00;53.10
6666;DHT22;3369;49.906;8.598;2023-04-19T17:21:28;13.00;53.50
6666;DHT22;3369;49.906;8.598;2023-04-19T17:23:54;12.90;53.90
6666;DHT22;3369;49.906;8.598;2023-04-19T17:26:20;12.80;53.70